createdAt,value
2023-05-21T00:02:10.149Z,13.69
2023-05-21T00:04:40.677Z,13.62
2023-05-21T00:07:09.566Z,13.53
2023-05-21T00:09:39.840Z,13.54
2023-05-21T00:12:09.520Z,13.55
2023-05-21T00:14:37.858Z,13.46
2023-05-21T00:17:06.506Z,13.44
2023-05-21T00:19:34.853Z,13.38
2023-05-21T00:22:03.791Z,13.44
2023-05-21T00:24:32.107Z,13.42
2023-05-21T00:27:01.808Z,13.48
2023-05-21T00:29:30.178Z,13.45
2023-05-21T00:31:58.690Z,13.33
2023-05-21T00:34:27.329Z,13.31
2023-05-21T00:36:55.850Z,13.33
2023-05-21T00:39:24.538Z,13.25
2023-05-21T00:41:52.963Z,13.29
2023-05-21T00:44:23.744Z,13.29
2023-05-21T00:46:53.757Z,13.26
2023-05-21T00:49:24.546Z,13.24
2023-05-21T00:52:21.703Z,13.21
2023-05-21T00:54:51.229Z,13.39
2023-05-21T00:57:21.794Z,13.27
2023-05-21T00:59:53.365Z,13.18
2023-05-21T01:02:24.454Z,13.17
2023-05-21T01:04:55.895Z,13.17
2023-05-21T01:07:24.218Z,13.20
2023-05-21T01:09:54.225Z,13.16
2023-05-21T01:12:24.711Z,13.13
2023-05-21T01:14:54.967Z,13.09
2023-05-21T01:17:24.469Z,13.11
2023-05-21T01:19:54.823Z,13.15
2023-05-21T01:22:25.104Z,13.12
2023-05-21T01:24:56.204Z,13.12
2023-05-21T01:27:24.484Z,13.13
2023-05-21T01:29:52.808Z,13.33
2023-05-21T01:32:27.578Z,13.17
2023-05-21T01:35:03.314Z,13.16
2023-05-21T01:37:36.379Z,13.12
2023-05-21T01:40:12.041Z,13.08
2023-05-21T01:42:44.393Z,13.12
2023-05-21T01:45:15.102Z,13.09
2023-05-21T01:47:47.987Z,13.06
2023-05-21T01:50:16.557Z,13.06
2023-05-21T01:52:51.042Z,13.01
2023-05-21T01:55:24.722Z,12.98
2023-05-21T01:57:54.014Z,12.99
2023-05-21T02:00:23.264Z,12.95
2023-05-21T02:02:52.005Z,12.84
2023-05-21T02:05:20.521Z,12.88
2023-05-21T02:07:49.831Z,12.89
2023-05-21T02:10:18.078Z,12.91
2023-05-21T02:12:47.773Z,12.94
2023-05-21T02:15:18.139Z,12.82
2023-05-21T02:17:46.803Z,12.79
2023-05-21T02:20:15.699Z,12.77
2023-05-21T02:22:45.575Z,12.75
2023-05-21T02:25:16.057Z,12.84
2023-05-21T02:27:46.629Z,12.90
2023-05-21T02:30:16.927Z,12.99
2023-05-21T02:32:45.593Z,12.84
2023-05-21T02:35:14.542Z,12.79
2023-05-21T02:37:44.200Z,12.68
2023-05-21T02:40:13.693Z,12.64
2023-05-21T02:42:43.115Z,12.76
2023-05-21T02:45:17.480Z,12.71
2023-05-21T02:47:45.974Z,12.62
2023-05-21T02:50:15.973Z,12.56
2023-05-21T02:52:49.726Z,12.57
2023-05-21T02:55:18.147Z,12.51
2023-05-21T02:57:46.484Z,12.54
2023-05-21T03:00:16.136Z,12.58
2023-05-21T03:02:46.588Z,12.49
2023-05-21T03:05:15.220Z,12.58
2023-05-21T03:07:43.684Z,12.57
2023-05-21T03:10:13.451Z,12.57
2023-05-21T03:12:42.277Z,12.61
2023-05-21T03:15:14.885Z,12.61
2023-05-21T03:17:44.594Z,12.55
2023-05-21T03:20:17.175Z,12.56
2023-05-21T03:22:46.497Z,12.52
2023-05-21T03:25:14.941Z,12.56
2023-05-21T03:27:43.449Z,12.49
2023-05-21T03:30:26.747Z,12.47
2023-05-21T03:33:24.737Z,12.41
2023-05-21T03:35:54.550Z,12.41
2023-05-21T03:38:23.132Z,12.44
2023-05-21T03:40:51.656Z,12.43
2023-05-21T03:43:20.549Z,12.39
2023-05-21T03:45:49.291Z,12.36
2023-05-21T03:48:36.226Z,12.40
2023-05-21T03:51:06.317Z,12.36
2023-05-21T03:53:35.559Z,12.33
2023-05-21T03:56:03.876Z,12.36
2023-05-21T03:58:33.417Z,12.37
2023-05-21T04:01:02.940Z,12.36
2023-05-21T04:03:36.299Z,12.35
2023-05-21T04:06:10.375Z,12.40
2023-05-21T04:08:40.334Z,12.40
2023-05-21T04:11:08.702Z,12.50
2023-05-21T04:13:37.501Z,12.47
2023-05-21T04:16:09.132Z,12.41
2023-05-21T04:18:37.836Z,12.48
2023-05-21T04:21:08.044Z,12.56
2023-05-21T04:23:36.810Z,12.57
2023-05-21T04:26:09.786Z,12.55
2023-05-21T04:28:42.267Z,12.57
2023-05-21T04:31:13.067Z,12.57
2023-05-21T04:33:42.270Z,12.68
2023-05-21T04:36:12.495Z,12.66
2023-05-21T04:38:42.059Z,12.67
2023-05-21T04:41:11.056Z,12.71
2023-05-21T04:43:44.046Z,12.74
2023-05-21T04:46:14.880Z,12.67
2023-05-21T04:48:43.196Z,12.71
2023-05-21T04:51:13.340Z,12.70
2023-05-21T04:53:42.616Z,12.70
2023-05-21T04:56:10.934Z,12.63
2023-05-21T04:58:40.579Z,12.64
2023-05-21T05:01:09.049Z,12.73
2023-05-21T05:03:37.526Z,12.79
2023-05-21T05:06:07.798Z,12.72
2023-05-21T05:08:37.742Z,12.66
2023-05-21T05:11:06.815Z,12.76
2023-05-21T05:13:35.345Z,12.71
2023-05-21T05:16:03.639Z,12.71
2023-05-21T05:18:32.163Z,12.76
2023-05-21T05:21:01.688Z,12.76
2023-05-21T05:23:30.113Z,12.70
2023-05-21T05:25:59.932Z,12.67
2023-05-21T05:28:29.051Z,12.74
2023-05-21T05:30:57.454Z,12.77
2023-05-21T05:33:26.960Z,12.77
2023-05-21T05:35:55.385Z,12.83
2023-05-21T05:38:23.886Z,12.83
2023-05-21T05:40:52.214Z,12.98
2023-05-21T05:43:23.158Z,12.97
2023-05-21T05:45:51.746Z,13.00
2023-05-21T05:48:20.801Z,12.95
2023-05-21T05:50:49.508Z,13.08
2023-05-21T05:53:18.056Z,13.08
2023-05-21T05:55:46.951Z,13.16
2023-05-21T05:58:15.640Z,13.20
2023-05-21T06:01:22.764Z,13.25
2023-05-21T06:03:51.467Z,13.30
2023-05-21T06:06:20.759Z,13.34
2023-05-21T06:08:49.300Z,13.34
2023-05-21T06:11:19.286Z,13.37
2023-05-21T06:13:47.670Z,13.42
2023-05-21T06:16:18.756Z,13.47
2023-05-21T06:18:48.587Z,13.50
2023-05-21T06:21:16.945Z,13.50
2023-05-21T06:23:46.458Z,13.49
2023-05-21T06:26:14.812Z,13.35
2023-05-21T06:28:43.218Z,13.53
2023-05-21T06:31:13.749Z,13.48
2023-05-21T06:33:43.872Z,13.43
2023-05-21T06:36:13.874Z,13.44
2023-05-21T06:38:42.735Z,13.59
2023-05-21T06:41:11.105Z,13.67
2023-05-21T06:43:55.210Z,13.69
2023-05-21T06:46:56.086Z,13.69
2023-05-21T06:49:24.586Z,13.64
2023-05-21T06:51:54.397Z,13.66
2023-05-21T06:54:24.014Z,13.54
2023-05-21T06:56:53.319Z,13.56
2023-05-21T06:59:21.725Z,13.60
2023-05-21T07:01:50.182Z,13.73
2023-05-21T07:04:19.235Z,13.69
2023-05-21T07:06:48.577Z,13.64
2023-05-21T07:09:19.037Z,13.64
2023-05-21T07:11:48.505Z,13.70
2023-05-21T07:14:18.421Z,13.78
2023-05-21T07:16:48.527Z,13.88
2023-05-21T07:19:16.937Z,13.84
2023-05-21T07:21:46.030Z,13.82
2023-05-21T07:24:14.519Z,13.94
2023-05-21T07:26:45.527Z,14.13
2023-05-21T07:29:14.392Z,14.21
2023-05-21T07:31:42.713Z,14.15
2023-05-21T07:34:12.088Z,14.30
2023-05-21T07:36:42.539Z,14.24
2023-05-21T07:39:11.032Z,14.36
2023-05-21T07:41:40.123Z,14.37
2023-05-21T07:44:11.450Z,14.42
2023-05-21T07:46:43.167Z,14.53
2023-05-21T07:49:16.845Z,14.61
2023-05-21T07:51:46.812Z,14.73
2023-05-21T07:54:16.672Z,14.73
2023-05-21T07:56:45.143Z,14.80
2023-05-21T07:59:26.004Z,14.87
2023-05-21T08:01:54.646Z,14.99
2023-05-21T08:04:23.463Z,15.00
2023-05-21T08:06:53.817Z,14.84
2023-05-21T08:09:22.126Z,14.94
2023-05-21T08:11:50.670Z,15.11
2023-05-21T08:14:19.028Z,15.29
2023-05-21T08:16:49.157Z,15.39
2023-05-21T08:19:17.651Z,15.46
2023-05-21T08:21:46.211Z,15.39
2023-05-21T08:24:14.588Z,15.59
2023-05-21T08:26:44.710Z,15.71
2023-05-21T08:29:13.572Z,15.63
2023-05-21T08:31:42.046Z,15.81
2023-05-21T08:34:12.139Z,15.78
2023-05-21T08:36:48.119Z,15.91
2023-05-21T08:39:41.228Z,16.25
2023-05-21T08:42:35.184Z,16.42
2023-05-21T08:45:07.841Z,16.36
2023-05-21T08:47:37.476Z,16.52
2023-05-21T08:50:11.417Z,16.38
2023-05-21T08:52:40.041Z,16.69
2023-05-21T08:55:09.701Z,16.52
2023-05-21T08:57:44.167Z,16.62
2023-05-21T09:00:15.743Z,16.69
2023-05-21T09:02:46.543Z,16.48
2023-05-21T09:05:18.101Z,16.69
2023-05-21T09:07:52.760Z,16.78
2023-05-21T09:10:37.357Z,16.96
2023-05-21T09:13:08.093Z,16.99
2023-05-21T09:15:37.587Z,17.12
2023-05-21T09:18:07.107Z,17.19
2023-05-21T09:20:46.548Z,17.19
2023-05-21T09:23:18.935Z,17.17
2023-05-21T09:25:52.064Z,17.22
2023-05-21T09:28:29.008Z,17.31
2023-05-21T09:30:57.422Z,17.32
2023-05-21T09:33:26.234Z,17.47
2023-05-21T09:35:56.596Z,17.70
2023-05-21T09:38:27.122Z,17.88
2023-05-21T09:40:56.957Z,17.92
2023-05-21T09:43:29.403Z,18.13
2023-05-21T09:46:01.294Z,17.97
2023-05-21T09:48:37.361Z,18.01
2023-05-21T09:51:14.840Z,17.97
2023-05-21T09:53:50.799Z,18.26
2023-05-21T09:56:23.506Z,18.33
2023-05-21T09:58:55.781Z,18.91
2023-05-21T10:01:25.646Z,19.23
2023-05-21T10:03:58.014Z,19.43
2023-05-21T10:06:33.781Z,19.77
2023-05-21T10:09:07.388Z,19.96
2023-05-21T10:11:37.782Z,20.19
2023-05-21T10:14:08.246Z,20.31
2023-05-21T10:16:37.871Z,20.35
2023-05-21T10:19:11.076Z,20.44
2023-05-21T10:21:46.315Z,20.67
2023-05-21T10:24:19.335Z,19.92
2023-05-21T10:26:49.557Z,20.07
2023-05-21T10:29:23.678Z,20.42
2023-05-21T10:31:54.025Z,20.66
2023-05-21T10:34:24.612Z,20.46
2023-05-21T10:36:57.262Z,20.03
2023-05-21T10:39:26.800Z,20.25
2023-05-21T10:42:03.541Z,20.36
2023-05-21T10:44:43.809Z,20.23
2023-05-21T10:47:50.205Z,20.46
2023-05-21T10:51:08.282Z,20.30
2023-05-21T10:53:54.023Z,20.35
2023-05-21T10:56:26.195Z,20.52
2023-05-21T10:59:22.398Z,20.80
2023-05-21T11:01:53.150Z,20.71
2023-05-21T11:04:27.326Z,20.64
2023-05-21T11:06:56.372Z,20.74
2023-05-21T11:09:27.970Z,20.79
2023-05-21T11:12:04.709Z,21.00
2023-05-21T11:14:36.339Z,21.13
2023-05-21T11:17:06.044Z,21.36
2023-05-21T11:19:39.517Z,21.37
2023-05-21T11:22:21.975Z,21.21
2023-05-21T11:24:52.800Z,21.28
2023-05-21T11:27:35.661Z,21.44
2023-05-21T11:30:08.824Z,21.35
2023-05-21T11:32:41.010Z,21.72
2023-05-21T11:35:10.137Z,22.04
2023-05-21T11:37:41.876Z,21.79
2023-05-21T11:40:36.905Z,21.86
2023-05-21T11:43:05.555Z,22.06
2023-05-21T11:45:34.463Z,22.31
2023-05-21T11:48:03.917Z,22.02
2023-05-21T11:50:34.163Z,21.97
2023-05-21T11:53:03.460Z,21.88
2023-05-21T11:55:33.211Z,22.06
2023-05-21T11:58:03.807Z,22.03
2023-05-21T12:00:32.380Z,22.01
2023-05-21T12:03:02.067Z,21.98
2023-05-21T12:05:30.653Z,22.06
2023-05-21T12:07:59.287Z,22.14
2023-05-21T12:10:27.819Z,22.12
2023-05-21T12:13:08.193Z,22.16
2023-05-21T12:15:47.619Z,21.93
2023-05-21T12:18:36.149Z,22.25
2023-05-21T12:21:07.024Z,22.58
2023-05-21T12:23:39.978Z,22.66
2023-05-21T12:26:12.268Z,22.71
2023-05-21T12:28:44.926Z,22.56
2023-05-21T12:31:19.204Z,22.54
2023-05-21T12:33:53.914Z,22.43
2023-05-21T12:36:29.106Z,22.49
2023-05-21T12:38:58.736Z,22.85
2023-05-21T12:41:36.930Z,23.20
2023-05-21T12:44:18.824Z,23.25
2023-05-21T12:46:47.916Z,23.46
2023-05-21T12:49:35.038Z,23.21
2023-05-21T12:52:05.153Z,23.22
2023-05-21T12:54:36.404Z,23.10
2023-05-21T12:57:12.675Z,22.90
2023-05-21T12:59:53.466Z,23.10
2023-05-21T13:02:23.115Z,22.94
2023-05-21T13:04:56.569Z,22.97
2023-05-21T13:07:26.295Z,22.88
2023-05-21T13:09:55.593Z,22.88
2023-05-21T13:12:26.086Z,22.77
2023-05-21T13:14:57.359Z,22.98
2023-05-21T13:17:27.579Z,23.08
2023-05-21T13:20:09.933Z,23.15
2023-05-21T13:22:42.488Z,23.22
2023-05-21T13:25:12.370Z,23.35
2023-05-21T13:27:40.961Z,23.24
2023-05-21T13:30:12.325Z,23.07
2023-05-21T13:32:43.997Z,23.25
2023-05-21T13:35:16.702Z,23.21
2023-05-21T13:37:46.078Z,23.38
2023-05-21T13:40:16.856Z,23.85
2023-05-21T13:42:47.648Z,24.10
2023-05-21T13:45:18.841Z,24.02
2023-05-21T13:47:48.192Z,23.79
2023-05-21T13:50:17.462Z,24.09
2023-05-21T13:52:46.284Z,24.15
2023-05-21T13:55:16.117Z,23.97
2023-05-21T13:57:45.014Z,24.02
2023-05-21T14:00:16.159Z,23.70
2023-05-21T14:02:46.171Z,23.85
2023-05-21T14:05:14.620Z,23.89
2023-05-21T14:07:43.244Z,23.93
2023-05-21T14:10:12.517Z,24.09
2023-05-21T14:12:42.238Z,24.09
2023-05-21T14:15:12.074Z,24.21
2023-05-21T14:17:42.646Z,24.40
2023-05-21T14:20:13.701Z,24.32
2023-05-21T14:22:42.434Z,24.36
2023-05-21T14:25:11.271Z,24.53
2023-05-21T14:27:39.894Z,24.44
2023-05-21T14:30:09.616Z,24.54
2023-05-21T14:32:38.715Z,24.51
2023-05-21T14:35:08.037Z,24.51
2023-05-21T14:37:37.971Z,24.48
2023-05-21T14:40:08.172Z,24.54
2023-05-21T14:42:36.908Z,24.43
2023-05-21T14:45:18.102Z,24.49
2023-05-21T14:47:52.369Z,24.34
2023-05-21T14:50:21.731Z,24.25
2023-05-21T14:52:51.592Z,24.33
2023-05-21T14:55:22.532Z,24.16
2023-05-21T14:57:51.354Z,24.07
2023-05-21T15:00:19.956Z,24.11
2023-05-21T15:02:51.652Z,24.21
2023-05-21T15:05:20.306Z,24.08
2023-05-21T15:07:49.011Z,24.18
2023-05-21T15:10:19.764Z,24.29
2023-05-21T15:12:49.643Z,24.30
2023-05-21T15:15:20.880Z,24.35
2023-05-21T15:17:50.740Z,24.29
2023-05-21T15:20:19.763Z,24.35
2023-05-21T15:22:49.134Z,24.56
2023-05-21T15:25:20.267Z,24.65
2023-05-21T15:27:50.395Z,24.70
2023-05-21T15:30:20.860Z,24.62
2023-05-21T15:32:54.768Z,24.59
2023-05-21T15:35:23.361Z,24.71
2023-05-21T15:37:52.194Z,24.79
2023-05-21T15:40:25.473Z,24.81
2023-05-21T15:42:55.781Z,24.82
2023-05-21T15:45:25.541Z,24.88
2023-05-21T15:47:54.398Z,24.76
2023-05-21T15:50:23.072Z,24.72
2023-05-21T15:52:54.662Z,24.53
2023-05-21T15:55:25.314Z,24.54
2023-05-21T15:57:54.007Z,24.44
2023-05-21T16:00:22.836Z,24.49
2023-05-21T16:02:51.831Z,24.29
2023-05-21T16:05:20.625Z,24.35
2023-05-21T16:07:54.507Z,24.39
2023-05-21T16:10:25.145Z,24.43
2023-05-21T16:12:54.024Z,24.37
2023-05-21T16:15:22.786Z,24.40
2023-05-21T16:17:51.445Z,24.38
2023-05-21T16:20:22.352Z,24.43
2023-05-21T16:22:51.239Z,24.43
2023-05-21T16:25:19.940Z,24.47
2023-05-21T16:27:53.007Z,24.43
2023-05-21T16:30:21.698Z,24.48
2023-05-21T16:32:51.135Z,24.39
2023-05-21T16:35:20.040Z,24.33
2023-05-21T16:37:48.477Z,24.39
2023-05-21T16:40:18.849Z,24.54
2023-05-21T16:42:47.574Z,24.53
2023-05-21T16:45:20.814Z,24.59
2023-05-21T16:47:49.827Z,24.66
2023-05-21T16:50:20.387Z,24.70
2023-05-21T16:52:49.995Z,24.63
2023-05-21T16:55:18.696Z,24.65
2023-05-21T16:57:47.340Z,24.67
2023-05-21T17:00:19.760Z,24.63
2023-05-21T17:02:49.357Z,24.62
2023-05-21T17:05:18.581Z,24.61
2023-05-21T17:07:49.119Z,24.57
2023-05-21T17:10:18.108Z,24.55
2023-05-21T17:12:47.556Z,24.56
2023-05-21T17:18:35.971Z,24.46
2023-05-21T17:21:22.862Z,24.49
2023-05-21T17:24:38.191Z,24.49
2023-05-21T17:27:13.450Z,24.44
2023-05-21T17:29:52.905Z,24.57
2023-05-21T17:41:44.603Z,24.48
2023-05-21T17:52:27.346Z,24.41
2023-05-21T17:54:58.299Z,24.30
2023-05-21T17:57:32.115Z,24.14
2023-05-21T18:00:05.780Z,24.05
2023-05-21T18:06:13.251Z,23.67
2023-05-21T18:09:16.651Z,23.67
2023-05-21T18:11:47.538Z,23.62
2023-05-21T18:14:20.729Z,23.60
2023-05-21T18:16:55.905Z,23.46
2023-05-21T18:19:30.798Z,23.42
2023-05-21T18:22:01.135Z,23.28
2023-05-21T18:24:30.682Z,23.19
2023-05-21T18:27:20.125Z,23.25
2023-05-21T18:32:59.471Z,23.03
2023-05-21T18:42:41.738Z,22.96
2023-05-21T18:45:31.359Z,22.82
2023-05-21T18:48:31.401Z,22.65
2023-05-21T18:51:01.772Z,22.59
2023-05-21T18:53:31.617Z,22.55
2023-05-21T18:56:01.405Z,22.42
2023-05-21T19:02:03.364Z,22.24
2023-05-21T19:07:39.305Z,22.05
2023-05-21T19:37:02.785Z,21.25
2023-05-21T19:39:39.302Z,21.17
2023-05-21T19:42:21.612Z,21.12
2023-05-21T19:47:50.608Z,21.00
2023-05-21T19:50:19.852Z,20.95
2023-05-21T19:52:53.728Z,20.86
2023-05-21T19:55:22.944Z,20.88
2023-05-21T19:57:52.188Z,20.84
2023-05-21T20:00:21.551Z,20.81
2023-05-21T20:02:52.310Z,20.81
2023-05-21T20:05:21.976Z,20.83
2023-05-21T20:07:52.559Z,20.79
2023-05-21T20:21:40.593Z,20.73
2023-05-21T20:24:11.490Z,20.70
2023-05-21T20:26:45.042Z,20.67
2023-05-21T20:29:13.814Z,20.65
2023-05-21T20:34:54.678Z,20.54
2023-05-21T20:37:32.585Z,20.45
2023-05-21T20:40:02.828Z,20.50
2023-05-21T20:42:34.936Z,20.44
2023-05-21T20:45:05.078Z,20.59
2023-05-21T20:47:34.944Z,20.57
2023-05-21T20:50:04.317Z,20.47
2023-05-21T20:52:33.118Z,20.51
2023-05-21T20:55:04.540Z,20.54
2023-05-21T20:57:33.154Z,20.57
2023-05-21T21:00:01.477Z,20.55
2023-05-21T21:02:31.231Z,20.49
2023-05-21T21:05:00.060Z,20.54
2023-05-21T21:07:30.114Z,20.48
2023-05-21T21:09:58.862Z,20.45
2023-05-21T21:12:28.688Z,20.48
2023-05-21T21:14:57.163Z,20.50
2023-05-21T21:17:25.414Z,20.38
2023-05-21T21:19:53.682Z,20.35
2023-05-21T21:22:22.120Z,20.17
2023-05-21T21:24:50.386Z,20.04
2023-05-21T21:27:18.818Z,19.91
2023-05-21T21:29:48.450Z,19.71
2023-05-21T21:32:17.011Z,19.21
2023-05-21T21:34:45.564Z,19.14
2023-05-21T21:37:13.971Z,18.98
2023-05-21T21:39:42.380Z,18.63
2023-05-21T21:42:10.825Z,18.61
2023-05-21T21:44:39.482Z,18.76
2023-05-21T21:47:09.249Z,18.71
2023-05-21T21:49:37.685Z,18.55
2023-05-21T21:52:07.150Z,18.48
2023-05-21T21:54:35.498Z,18.66
2023-05-21T21:57:03.763Z,18.68
2023-05-21T21:59:32.253Z,18.77
2023-05-21T22:02:00.870Z,18.76
2023-05-21T22:04:30.609Z,18.76
2023-05-21T22:06:59.089Z,18.76
2023-05-21T22:09:27.432Z,18.83
2023-05-21T22:11:55.860Z,18.73
2023-05-21T22:14:24.127Z,18.53
2023-05-21T22:16:53.361Z,18.47
2023-05-21T22:19:22.740Z,18.42
2023-05-21T22:21:54.088Z,18.38
2023-05-21T22:24:32.153Z,18.48
2023-05-21T22:27:01.610Z,18.32
2023-05-21T22:29:29.915Z,18.08
2023-05-21T22:31:58.411Z,18.01
2023-05-21T22:34:26.643Z,17.93
2023-05-21T22:36:56.569Z,17.93
2023-05-21T22:39:24.889Z,17.94
2023-05-21T22:41:53.133Z,17.84
2023-05-21T22:44:21.336Z,17.90
2023-05-21T22:46:49.647Z,17.87
2023-05-21T22:49:18.045Z,17.86
2023-05-21T22:51:46.432Z,17.87
2023-05-21T22:54:16.189Z,17.87
2023-05-21T22:56:45.021Z,17.85
2023-05-21T22:59:13.311Z,17.65
2023-05-21T23:01:41.856Z,17.66
2023-05-21T23:04:10.214Z,17.73
2023-05-21T23:06:38.477Z,17.60
2023-05-21T23:09:07.031Z,17.54
2023-05-21T23:11:37.089Z,17.49
2023-05-21T23:14:05.384Z,17.45
2023-05-21T23:16:33.818Z,17.40
2023-05-21T23:19:02.803Z,17.38
2023-05-21T23:21:31.481Z,17.38
2023-05-21T23:23:59.745Z,17.48
2023-05-21T23:26:28.617Z,17.54
2023-05-21T23:28:58.245Z,17.58
2023-05-21T23:31:26.920Z,17.62
2023-05-21T23:33:55.480Z,17.45
2023-05-21T23:36:23.884Z,17.23
2023-05-21T23:38:52.159Z,16.98
2023-05-21T23:41:21.030Z,16.96
2023-05-21T23:43:49.299Z,16.93
2023-05-21T23:46:19.042Z,16.95
2023-05-21T23:48:47.445Z,17.10
2023-05-21T23:51:16.241Z,17.24
2023-05-21T23:54:10.398Z,17.36
2023-05-21T23:56:38.661Z,17.41
2023-05-21T23:59:06.911Z,17.48
